Time;durP1;ratioP1;P1;durP2;ratioP2;P2;SDS_P1;SDS_P2;PMS_P1;PMS_P2;Temp;Humidity;BMP_temperature;BMP_pressure;BME280_temperature;BME280_humidity;BME280_pressure;Samples;Min_cycle;Max_cycle;Signal;HPM_P1;HPM_P2
2023/10/19 00:00:39;;;;;;;3.30;2.78;;;11.20;99.90;;;;;;5106159;28;20027;-69
2023/10/19 00:03:06;;;;;;;5.07;1.75;;;11.20;99.90;;;;;;5106039;28;20374;-70
2023/10/19 00:05:32;;;;;;;2.78;1.55;;;11.20;99.90;;;;;;5105797;28;20023;-69
2023/10/19 00:08:13;;;;;;;5.20;2.80;;;11.20;99.90;;;;;;5107753;28;20470;-70
2023/10/19 00:10:44;;;;;;;3.47;1.90;;;11.20;99.90;;;;;;5104418;28;20039;-70
2023/10/19 00:13:11;;;;;;;2.28;1.80;;;11.20;99.90;;;;;;5103142;28;20027;-69
2023/10/19 00:15:47;;;;;;;2.63;1.55;;;11.30;99.90;;;;;;5106765;28;20035;-69
2023/10/19 00:23:18;;;;;;;2.65;2.17;;;11.30;99.90;;;;;;5102391;28;20081;-67
2023/10/19 00:25:44;;;;;;;2.13;1.95;;;11.40;99.90;;;;;;5105194;28;20023;-67
2023/10/19 00:28:14;;;;;;;2.92;2.13;;;11.40;99.90;;;;;;5107478;28;20512;-66
2023/10/19 00:30:42;;;;;;;3.15;2.38;;;11.40;99.90;;;;;;5104245;28;20073;-66
2023/10/19 00:33:16;;;;;;;2.38;2.05;;;11.50;99.90;;;;;;5106152;28;20024;-66
2023/10/19 00:35:46;;;;;;;2.35;1.60;;;11.50;99.90;;;;;;5106875;28;20025;-66
2023/10/19 00:39:14;;;;;;;8.07;2.90;;;11.50;99.90;;;;;;5106804;28;20127;-67
2023/10/19 00:41:12;;;;;;;1.92;1.83;;;11.50;99.90;;;;;;5100558;28;20062;-68
2023/10/19 00:43:43;;;;;;;7.47;2.45;;;11.60;99.90;;;;;;5106070;28;20016;-68
2023/10/19 00:46:20;;;;;;;5.03;2.67;;;11.60;99.90;;;;;;5104211;28;20475;-68
2023/10/19 00:48:58;;;;;;;2.95;2.20;;;11.60;99.90;;;;;;5101819;28;20507;-68
2023/10/19 00:51:54;;;;;;;2.78;2.58;;;11.60;99.90;;;;;;5100584;28;20054;-68
2023/10/19 00:54:40;;;;;;;5.95;2.63;;;11.60;99.90;;;;;;5101945;28;20132;-68
2023/10/19 00:57:13;;;;;;;2.78;1.92;;;11.70;99.90;;;;;;5098973;28;20073;-69
2023/10/19 01:00:31;;;;;;;3.15;1.95;;;11.70;99.90;;;;;;5101783;28;20017;-68
2023/10/19 01:02:29;;;;;;;3.45;2.10;;;11.70;99.90;;;;;;5092600;28;20047;-68
2023/10/19 01:04:59;;;;;;;4.60;2.22;;;11.70;99.90;;;;;;5102266;28;20028;-68
2023/10/19 01:07:29;;;;;;;2.45;1.88;;;11.80;99.90;;;;;;5099775;28;20012;-68
2023/10/19 01:09:59;;;;;;;2.58;1.83;;;11.80;99.90;;;;;;5103541;28;20024;-68
2023/10/19 01:15:07;;;;;;;3.33;1.88;;;11.90;99.90;;;;;;5102839;28;20052;-68
2023/10/19 01:17:38;;;;;;;3.67;1.75;;;11.90;99.90;;;;;;5099603;28;20040;-69
2023/10/19 01:20:19;;;;;;;2.80;1.77;;;11.90;99.90;;;;;;5102351;28;20046;-68
2023/10/19 01:23:20;;;;;;;5.07;3.13;;;11.90;99.90;;;;;;5103289;28;20626;-71
2023/10/19 01:31:16;;;;;;;2.92;2.22;;;12.00;99.90;;;;;;5098773;28;20051;-70
2023/10/19 01:33:44;;;;;;;4.70;2.40;;;12.10;99.90;;;;;;5102101;28;20376;-68
2023/10/19 01:38:48;;;;;;;2.42;2.13;;;12.10;99.90;;;;;;5099933;28;20030;-69
2023/10/19 01:41:14;;;;;;;2.30;2.10;;;12.10;99.90;;;;;;5101871;28;20026;-69
2023/10/19 01:43:41;;;;;;;2.55;2.35;;;12.20;99.90;;;;;;5101838;28;20024;-67
2023/10/19 01:46:11;;;;;;;3.95;2.03;;;12.20;99.90;;;;;;5101146;28;20012;-68
2023/10/19 01:48:48;;;;;;;1.38;1.27;;;12.30;99.90;;;;;;5102852;28;20028;-67
2023/10/19 01:51:14;;;;;;;1.90;1.50;;;12.30;99.90;;;;;;5100375;28;20016;-67
2023/10/19 01:53:43;;;;;;;2.28;1.92;;;12.30;99.90;;;;;;5100168;28;20027;-66
2023/10/19 01:56:09;;;;;;;1.90;1.63;;;12.40;99.90;;;;;;5104660;28;20106;-71
2023/10/19 01:58:39;;;;;;;3.45;1.65;;;12.40;99.90;;;;;;5105658;28;20028;-70
2023/10/19 02:01:51;;;;;;;2.30;1.65;;;12.50;99.90;;;;;;5104481;28;20069;-68
2023/10/19 02:03:59;;;;;;;1.92;1.58;;;12.50;99.90;;;;;;5103072;28;20087;-69
2023/10/19 02:06:46;;;;;;;3.80;2.38;;;12.60;99.90;;;;;;5105800;28;20464;-67
2023/10/19 02:09:32;;;;;;;4.13;2.05;;;12.60;99.90;;;;;;5103389;28;20094;-68
2023/10/19 02:11:58;;;;;;;4.75;2.80;;;12.70;99.90;;;;;;5105993;28;20024;-68
2023/10/19 02:14:25;;;;;;;2.88;2.47;;;12.70;99.90;;;;;;5103465;28;20388;-70
2023/10/19 02:16:56;;;;;;;3.22;2.40;;;12.80;99.90;;;;;;5103572;28;20036;-68
2023/10/19 02:19:23;;;;;;;3.05;1.95;;;12.80;99.90;;;;;;5106001;28;20024;-70
2023/10/19 02:21:50;;;;;;;1.40;1.30;;;12.90;99.90;;;;;;5105364;28;20043;-71
2023/10/19 02:24:16;;;;;;;3.35;1.27;;;12.90;99.90;;;;;;5103979;28;20016;-68
2023/10/19 02:26:42;;;;;;;4.60;2.95;;;12.90;99.90;;;;;;5105833;28;20110;-69
2023/10/19 02:29:09;;;;;;;4.13;2.80;;;13.00;99.90;;;;;;5104191;28;20024;-67
2023/10/19 02:31:37;;;;;;;2.50;2.28;;;13.00;99.90;;;;;;5104941;28;20044;-67
2023/10/19 02:34:04;;;;;;;3.88;2.60;;;13.00;99.90;;;;;;5105493;28;20064;-67
2023/10/19 02:36:31;;;;;;;3.28;2.22;;;13.10;99.90;;;;;;5104536;28;20035;-68
2023/10/19 02:39:04;;;;;;;4.50;3.08;;;13.10;99.90;;;;;;5104572;28;20031;-67
2023/10/19 02:41:29;;;;;;;4.88;2.20;;;13.20;99.90;;;;;;5102692;28;20011;-67
2023/10/19 02:44:02;;;;;;;4.63;2.55;;;13.20;99.90;;;;;;5105598;28;20099;-67
2023/10/19 02:46:28;;;;;;;3.50;2.67;;;13.20;99.90;;;;;;5101440;28;20034;-67
2023/10/19 02:48:54;;;;;;;4.40;2.30;;;13.20;99.90;;;;;;5104638;28;20027;-67
2023/10/19 02:51:20;;;;;;;4.65;3.25;;;13.30;99.90;;;;;;5105415;28;20024;-66
2023/10/19 02:53:45;;;;;;;4.57;2.45;;;13.40;99.90;;;;;;5104358;28;20028;-67
2023/10/19 02:56:14;;;;;;;3.85;2.58;;;13.40;99.90;;;;;;5103537;28;20460;-67
2023/10/19 02:58:48;;;;;;;4.43;2.83;;;13.50;99.90;;;;;;5104883;28;20016;-65
2023/10/19 03:01:22;;;;;;;8.55;3.60;;;13.50;99.90;;;;;;5102743;28;20051;-65
2023/10/19 03:03:53;;;;;;;2.83;2.63;;;13.50;99.90;;;;;;5102912;28;20032;-67
2023/10/19 03:06:20;;;;;;;6.45;4.18;;;13.60;99.90;;;;;;5101346;28;20380;-67
2023/10/19 03:08:46;;;;;;;4.35;3.00;;;13.70;99.90;;;;;;5105217;28;20603;-64
2023/10/19 03:11:13;;;;;;;3.05;2.55;;;13.70;99.90;;;;;;5104099;28;20020;-67
2023/10/19 03:13:40;;;;;;;2.53;2.28;;;13.70;99.90;;;;;;5104228;28;20099;-65
2023/10/19 03:16:09;;;;;;;2.85;2.58;;;13.80;99.90;;;;;;5103729;28;20441;-66
2023/10/19 03:18:35;;;;;;;8.30;3.85;;;13.80;99.90;;;;;;5100551;28;20115;-67
2023/10/19 03:21:04;;;;;;;3.22;2.53;;;13.80;99.90;;;;;;5100644;28;20375;-66
2023/10/19 03:23:34;;;;;;;4.70;2.58;;;13.90;99.90;;;;;;5095189;28;20563;-66
2023/10/19 03:28:45;;;;;;;2.80;2.55;;;13.90;99.90;;;;;;5083841;28;20043;-66
2023/10/19 03:31:17;;;;;;;2.38;2.13;;;13.90;99.90;;;;;;5106111;28;20024;-66
2023/10/19 03:33:50;;;;;;;2.00;1.50;;;14.00;99.90;;;;;;5095110;28;20407;-65
2023/10/19 03:36:16;;;;;;;4.85;3.00;;;14.00;99.90;;;;;;5111653;28;20491;-67
2023/10/19 03:38:43;;;;;;;2.15;1.85;;;14.00;99.90;;;;;;5107531;28;20056;-66
2023/10/19 03:41:09;;;;;;;2.80;2.25;;;14.10;99.90;;;;;;5105007;28;20031;-66
2023/10/19 03:43:40;;;;;;;2.53;2.33;;;14.10;99.90;;;;;;5095181;28;20028;-66
2023/10/19 03:46:14;;;;;;;1.60;1.42;;;14.10;99.90;;;;;;5097446;28;20023;-66
2023/10/19 03:48:40;;;;;;;4.05;1.80;;;14.10;99.90;;;;;;5102033;28;20049;-66
2023/10/19 03:51:06;;;;;;;1.38;1.27;;;14.10;99.90;;;;;;5103794;28;20372;-67
2023/10/19 03:53:35;;;;;;;2.53;1.50;;;14.10;99.90;;;;;;5108221;28;20047;-66
2023/10/19 03:56:10;;;;;;;1.10;1.02;;;14.00;99.90;;;;;;5111468;28;20030;-66
2023/10/19 03:58:38;;;;;;;1.10;0.82;;;14.00;99.90;;;;;;5094978;28;20430;-66
2023/10/19 04:01:05;;;;;;;3.63;1.23;;;14.00;99.90;;;;;;5094782;28;20081;-66
2023/10/19 04:03:31;;;;;;;2.75;0.93;;;14.00;99.90;;;;;;5095201;28;20020;-67
2023/10/19 04:06:00;;;;;;;1.27;1.25;;;14.00;99.90;;;;;;5096436;28;20066;-66
2023/10/19 04:08:26;;;;;;;1.67;1.58;;;14.00;99.90;;;;;;5108626;28;20069;-66
2023/10/19 04:11:08;;;;;;;0.77;0.77;;;14.00;99.90;;;;;;5094997;28;20052;-65
2023/10/19 04:13:37;;;;;;;1.50;1.40;;;14.00;99.90;;;;;;5101534;28;20380;-65
2023/10/19 04:16:03;;;;;;;0.52;0.52;;;14.00;99.90;;;;;;5096792;28;20084;-66
2023/10/19 04:18:28;;;;;;;0.43;0.43;;;14.00;99.90;;;;;;5094395;28;20044;-66
2023/10/19 04:20:55;;;;;;;1.55;1.08;;;14.00;99.90;;;;;;5093271;28;20499;-66
2023/10/19 04:23:28;;;;;;;1.55;0.82;;;14.00;99.90;;;;;;5094659;28;20024;-66
2023/10/19 04:25:57;;;;;;;0.28;0.28;;;14.00;99.90;;;;;;5095496;28;20088;-67
2023/10/19 04:28:44;;;;;;;0.85;0.70;;;14.10;99.90;;;;;;5096695;28;20016;-65
2023/10/19 04:31:14;;;;;;;1.67;1.17;;;14.00;99.90;;;;;;5094551;28;20023;-66
2023/10/19 04:33:42;;;;;;;0.50;0.50;;;14.10;99.90;;;;;;5094756;28;20039;-65
2023/10/19 04:36:11;;;;;;;0.50;0.50;;;14.10;99.90;;;;;;5104353;28;20023;-66
2023/10/19 04:38:37;;;;;;;1.88;0.60;;;14.10;99.90;;;;;;5112860;28;20062;-66
2023/10/19 04:41:09;;;;;;;1.15;0.45;;;14.10;99.90;;;;;;5103803;28;20028;-65
2023/10/19 04:43:37;;;;;;;0.45;0.45;;;14.10;99.90;;;;;;5094314;28;20032;-66
2023/10/19 04:46:11;;;;;;;0.77;0.63;;;14.20;99.90;;;;;;5099473;28;20026;-65
2023/10/19 04:48:39;;;;;;;2.45;0.77;;;14.20;99.90;;;;;;5101393;28;20468;-66
2023/10/19 04:51:06;;;;;;;0.80;0.70;;;14.20;99.90;;;;;;5094759;28;20032;-66
2023/10/19 04:53:32;;;;;;;1.27;0.60;;;14.30;99.90;;;;;;5094585;28;20040;-66
2023/10/19 04:56:00;;;;;;;5.03;1.05;;;14.30;99.90;;;;;;5107493;28;20031;-65
2023/10/19 04:58:27;;;;;;;1.08;1.00;;;14.30;99.90;;;;;;5108107;28;20500;-65
2023/10/19 05:00:53;;;;;;;0.17;0.17;;;14.30;99.90;;;;;;5102104;28;20028;-67
2023/10/19 05:03:18;;;;;;;0.30;0.30;;;14.30;99.90;;;;;;5094209;28;20028;-65
2023/10/19 05:05:45;;;;;;;1.10;0.68;;;14.30;99.90;;;;;;5093375;28;20020;-67
2023/10/19 05:08:10;;;;;;;1.60;0.80;;;14.30;99.90;;;;;;5108296;28;20107;-67
2023/10/19 05:10:36;;;;;;;0.40;0.40;;;14.40;99.90;;;;;;5096169;28;20133;-68
2023/10/19 05:13:03;;;;;;;0.28;0.28;;;14.40;99.90;;;;;;5103937;28;20217;-67
2023/10/19 05:15:29;;;;;;;0.22;0.22;;;14.40;99.90;;;;;;5094387;28;20459;-65
2023/10/19 05:17:55;;;;;;;0.17;0.17;;;14.40;99.90;;;;;;5093929;28;20281;-65
2023/10/19 05:20:21;;;;;;;0.57;0.57;;;14.40;99.90;;;;;;5111099;28;20031;-67
2023/10/19 05:22:47;;;;;;;0.32;0.32;;;14.40;99.90;;;;;;5106122;28;20012;-65
2023/10/19 05:25:12;;;;;;;0.28;0.28;;;14.40;99.90;;;;;;5094249;28;20116;-66
2023/10/19 05:27:39;;;;;;;0.30;0.30;;;14.40;99.90;;;;;;5094320;28;20077;-66
2023/10/19 05:30:05;;;;;;;0.20;0.20;;;14.40;99.90;;;;;;5097011;28;20028;-66
2023/10/19 05:32:31;;;;;;;0.28;0.28;;;14.40;99.90;;;;;;5097772;28;20369;-67
2023/10/19 05:34:57;;;;;;;0.55;0.50;;;14.40;99.90;;;;;;5097953;28;20023;-65
2023/10/19 05:37:25;;;;;;;0.52;0.50;;;14.40;99.90;;;;;;5110176;28;20471;-67
2023/10/19 05:39:51;;;;;;;0.15;0.15;;;14.40;99.90;;;;;;5101347;28;20032;-64
2023/10/19 05:42:22;;;;;;;1.17;0.52;;;14.40;99.90;;;;;;5100926;28;20370;-67
2023/10/19 05:44:53;;;;;;;0.75;0.65;;;14.40;99.90;;;;;;5109321;28;20040;-67
2023/10/19 05:47:19;;;;;;;0.10;0.10;;;14.40;99.90;;;;;;5099279;28;20103;-66
2023/10/19 05:49:44;;;;;;;0.20;0.20;;;14.40;99.90;;;;;;5098731;28;20103;-66
2023/10/19 05:52:10;;;;;;;2.17;0.57;;;14.40;99.90;;;;;;5105874;28;20044;-66
2023/10/19 05:54:37;;;;;;;0.25;0.25;;;14.40;99.90;;;;;;5105007;28;20391;-66
2023/10/19 05:57:07;;;;;;;0.30;0.30;;;14.40;99.90;;;;;;5110881;28;20126;-64
2023/10/19 05:59:33;;;;;;;0.20;0.20;;;14.40;99.90;;;;;;5101672;28;20020;-66
2023/10/19 06:01:58;;;;;;;1.20;0.88;;;14.40;99.90;;;;;;5111883;28;20046;-66
2023/10/19 06:04:24;;;;;;;0.70;0.50;;;14.40;99.90;;;;;;5100653;28;20039;-66
2023/10/19 06:06:49;;;;;;;3.30;1.58;;;14.40;99.90;;;;;;5107473;28;20024;-66
2023/10/19 06:09:16;;;;;;;0.43;0.43;;;14.40;99.90;;;;;;5091349;28;20036;-64
2023/10/19 06:11:42;;;;;;;0.20;0.20;;;14.40;99.90;;;;;;5111420;28;20027;-66
2023/10/19 06:14:09;;;;;;;0.25;0.25;;;14.30;99.90;;;;;;5099361;28;20428;-67
2023/10/19 06:16:35;;;;;;;0.43;0.43;;;14.30;99.90;;;;;;5109369;28;20107;-66
2023/10/19 06:19:00;;;;;;;1.40;0.75;;;14.30;99.90;;;;;;5095678;28;20100;-66
2023/10/19 06:21:26;;;;;;;0.40;0.40;;;14.20;99.90;;;;;;5095377;28;20085;-66
2023/10/19 06:23:53;;;;;;;2.35;0.43;;;14.20;99.90;;;;;;5110102;28;20135;-65
2023/10/19 06:26:19;;;;;;;2.10;0.47;;;14.20;99.90;;;;;;5099352;28;20031;-65
2023/10/19 06:28:45;;;;;;;0.45;0.40;;;14.20;99.90;;;;;;5097776;28;20040;-66
2023/10/19 06:31:10;;;;;;;0.38;0.38;;;14.20;99.90;;;;;;5101384;28;20024;-66
2023/10/19 06:33:41;;;;;;;0.88;0.88;;;14.30;99.90;;;;;;5094050;28;20375;-66
2023/10/19 06:36:06;;;;;;;7.68;0.50;;;14.30;99.90;;;;;;5112058;28;20100;-65
2023/10/19 06:38:32;;;;;;;0.25;0.25;;;14.30;99.90;;;;;;5095661;28;20408;-66
2023/10/19 06:40:59;;;;;;;2.08;0.98;;;14.30;99.90;;;;;;5105723;28;20409;-66
2023/10/19 06:43:28;;;;;;;1.60;0.85;;;14.30;99.90;;;;;;5101726;28;20043;-64
2023/10/19 06:45:55;;;;;;;0.73;0.57;;;14.30;99.90;;;;;;5097227;28;20024;-65
2023/10/19 06:48:20;;;;;;;0.40;0.40;;;14.40;99.90;;;;;;5094748;28;20049;-65
2023/10/19 06:50:46;;;;;;;0.88;0.50;;;14.40;99.90;;;;;;5095461;28;20018;-65
2023/10/19 06:53:12;;;;;;;0.13;0.13;;;14.40;99.90;;;;;;5095110;28;20048;-65
2023/10/19 06:55:38;;;;;;;2.50;0.98;;;14.40;99.90;;;;;;5093938;28;20031;-64
2023/10/19 06:58:04;;;;;;;2.55;0.95;;;14.50;99.90;;;;;;5094774;28;20039;-66
2023/10/19 07:00:30;;;;;;;0.28;0.20;;;14.50;99.90;;;;;;5095299;28;20028;-65
2023/10/19 07:02:57;;;;;;;0.35;0.35;;;14.50;99.90;;;;;;5095243;28;20035;-65
2023/10/19 07:05:29;;;;;;;0.43;0.30;;;14.60;99.90;;;;;;5094909;28;20024;-65
2023/10/19 07:07:56;;;;;;;1.58;1.42;;;14.60;99.90;;;;;;5093228;28;20036;-65
2023/10/19 07:10:23;;;;;;;1.65;0.38;;;14.60;99.90;;;;;;5094970;28;20020;-65
2023/10/19 07:12:51;;;;;;;6.63;0.73;;;14.70;99.90;;;;;;5093514;28;20043;-65
2023/10/19 07:15:22;;;;;;;0.38;0.35;;;14.70;99.90;;;;;;5107619;27;20118;-65
2023/10/19 07:17:48;;;;;;;0.32;0.32;;;14.80;99.90;;;;;;5113662;28;20075;-65
2023/10/19 07:23:05;;;;;;;0.40;0.40;;;15.00;99.90;;;;;;5100609;28;20060;-66
2023/10/19 07:25:31;;;;;;;0.10;0.10;;;15.10;99.90;;;;;;5099832;28;20032;-66
2023/10/19 07:27:59;;;;;;;2.75;1.05;;;15.20;99.90;;;;;;5105720;28;20072;-64
2023/10/19 07:30:28;;;;;;;1.27;0.73;;;15.20;99.90;;;;;;5105676;28;20016;-64
2023/10/19 07:32:59;;;;;;;0.57;0.57;;;15.20;99.90;;;;;;5100845;28;20028;-65
2023/10/19 07:35:26;;;;;;;0.73;0.63;;;15.30;99.90;;;;;;5099528;28;20031;-65
2023/10/19 07:37:53;;;;;;;0.55;0.55;;;15.30;99.90;;;;;;5110523;28;20113;-65
2023/10/19 07:40:18;;;;;;;1.20;0.90;;;15.30;99.90;;;;;;5099467;28;20019;-65
2023/10/19 07:42:46;;;;;;;0.30;0.30;;;15.40;99.90;;;;;;5105978;28;20130;-65
2023/10/19 07:45:11;;;;;;;0.43;0.35;;;15.40;99.90;;;;;;5106775;28;20028;-65
2023/10/19 07:47:41;;;;;;;1.20;0.35;;;15.50;99.90;;;;;;5098407;28;20031;-65
2023/10/19 07:50:17;;;;;;;1.75;0.38;;;15.50;99.90;;;;;;5110727;28;20024;-65
2023/10/19 07:52:48;;;;;;;0.20;0.20;;;15.60;99.90;;;;;;5101928;28;20055;-65
2023/10/19 07:55:15;;;;;;;0.20;0.20;;;15.60;99.90;;;;;;5101588;28;20081;-65
2023/10/19 07:57:41;;;;;;;0.20;0.20;;;15.70;99.90;;;;;;5110412;28;20024;-65
2023/10/19 08:00:08;;;;;;;0.10;0.10;;;15.70;99.90;;;;;;5097310;28;20076;-65
2023/10/19 08:02:55;;;;;;;1.23;0.95;;;15.60;99.90;;;;;;5106754;28;20032;-66
2023/10/19 08:05:21;;;;;;;0.50;0.50;;;15.70;99.90;;;;;;5107149;28;20051;-65
2023/10/19 08:07:47;;;;;;;4.50;1.65;;;15.70;99.90;;;;;;5097145;28;20111;-65
2023/10/19 08:10:17;;;;;;;12.77;2.75;;;15.70;99.90;;;;;;5110077;28;20028;-65
2023/10/19 08:12:47;;;;;;;10.05;2.83;;;15.80;99.90;;;;;;5102519;28;20107;-65
2023/10/19 08:15:15;;;;;;;11.48;3.00;;;15.70;99.90;;;;;;5101446;28;20024;-65
2023/10/19 08:17:42;;;;;;;12.77;2.80;;;15.80;99.90;;;;;;5110260;28;20468;-65
2023/10/19 08:20:09;;;;;;;14.27;3.58;;;15.70;99.90;;;;;;5080092;28;20023;-65
2023/10/19 08:22:37;;;;;;;13.90;3.83;;;15.80;99.90;;;;;;5106601;28;20024;-65
2023/10/19 08:25:05;;;;;;;11.52;3.40;;;15.80;99.90;;;;;;5102045;28;20413;-66
2023/10/19 08:27:33;;;;;;;13.20;3.70;;;15.90;99.90;;;;;;5113816;28;20062;-66
2023/10/19 08:29:58;;;;;;;10.90;3.25;;;15.90;99.90;;;;;;5111381;28;20028;-65
2023/10/19 08:32:24;;;;;;;19.88;4.65;;;16.00;99.90;;;;;;5099052;28;20027;-65
2023/10/19 08:34:50;;;;;;;15.93;3.78;;;16.00;99.90;;;;;;5104242;28;20028;-65
2023/10/19 08:37:15;;;;;;;13.40;3.70;;;16.10;99.90;;;;;;5106601;28;20091;-65
2023/10/19 08:39:43;;;;;;;13.75;3.75;;;16.10;99.90;;;;;;5096925;28;20028;-65
2023/10/19 08:42:10;;;;;;;13.23;4.05;;;16.20;99.90;;;;;;5079190;28;20372;-65
2023/10/19 08:44:36;;;;;;;14.32;3.75;;;16.20;99.90;;;;;;5113644;28;20459;-66
2023/10/19 08:47:01;;;;;;;21.85;10.30;;;16.30;99.90;;;;;;5102511;28;20036;-65
2023/10/19 08:49:27;;;;;;;12.27;3.50;;;16.40;99.90;;;;;;5107801;28;20030;-65
2023/10/19 08:51:54;;;;;;;15.63;5.05;;;16.50;99.90;;;;;;5096091;28;20058;-65
2023/10/19 08:54:20;;;;;;;13.68;3.70;;;16.60;99.90;;;;;;5108149;28;20107;-66
2023/10/19 08:56:47;;;;;;;11.27;3.90;;;16.80;99.90;;;;;;5101783;28;20114;-66
2023/10/19 08:59:15;;;;;;;15.00;4.72;;;17.00;99.90;;;;;;5100792;28;20031;-65
2023/10/19 09:01:43;;;;;;;12.88;4.90;;;17.20;99.90;;;;;;5109707;28;20035;-66
2023/10/19 09:04:10;;;;;;;11.20;3.33;;;17.40;99.90;;;;;;5080652;28;20475;-65
2023/10/19 09:06:42;;;;;;;10.43;3.30;;;17.50;99.90;;;;;;5110269;28;20064;-65
2023/10/19 09:09:09;;;;;;;;;;;17.70;99.90;;;;;;5097793;28;20024;-65
2023/10/19 09:11:35;;;;;;;12.35;4.38;;;17.80;99.90;;;;;;5113353;28;20003;-65
2023/10/19 09:14:01;;;;;;;12.43;3.70;;;18.00;99.90;;;;;;5100685;28;20103;-65
2023/10/19 09:16:26;;;;;;;17.20;6.82;;;18.10;99.90;;;;;;5110256;28;20024;-65
2023/10/19 09:18:52;;;;;;;9.38;3.10;;;18.20;99.90;;;;;;5114086;28;20031;-66
2023/10/19 09:21:25;;;;;;;13.77;5.55;;;18.30;99.90;;;;;;5117293;28;20462;-65
2023/10/19 09:23:52;;;;;;;12.13;4.18;;;18.30;99.90;;;;;;5100040;28;20547;-66
2023/10/19 09:26:18;;;;;;;9.05;3.20;;;18.30;99.90;;;;;;5112253;28;20024;-65
2023/10/19 09:28:48;;;;;;;15.40;5.07;;;18.40;99.90;;;;;;5105366;28;20047;-66
2023/10/19 09:31:14;;;;;;;14.93;3.70;;;18.40;99.90;;;;;;5104514;28;20020;-65
2023/10/19 09:33:44;;;;;;;12.75;3.40;;;18.60;99.90;;;;;;5113498;28;20463;-66
2023/10/19 09:36:14;;;;;;;12.73;3.40;;;18.90;99.90;;;;;;5098970;28;20126;-66
2023/10/19 09:38:53;;;;;;;12.52;3.67;;;19.70;99.90;;;;;;5109034;28;20090;-64
2023/10/19 09:41:22;;;;;;;12.43;2.95;;;20.60;99.90;;;;;;5110328;28;20027;-64
2023/10/19 09:43:49;;;;;;;12.07;3.35;;;21.10;99.90;;;;;;5099669;28;20024;-64
2023/10/19 09:46:27;;;;;;;12.82;3.00;;;21.20;99.90;;;;;;5112210;28;20036;-64
2023/10/19 09:48:53;;;;;;;7.93;2.35;;;21.30;99.90;;;;;;5106125;28;20490;-64
2023/10/19 09:51:20;;;;;;;11.65;2.72;;;21.10;99.90;;;;;;5102907;28;20028;-64
2023/10/19 09:53:53;;;;;;;10.63;2.70;;;20.90;99.90;;;;;;5113042;28;20469;-65
2023/10/19 09:56:24;;;;;;;10.93;2.67;;;20.70;99.90;;;;;;5100197;28;20134;-65
2023/10/19 09:58:55;;;;;;;13.20;3.40;;;20.50;99.90;;;;;;5107308;28;20046;-65
2023/10/19 10:01:23;;;;;;;9.93;3.07;;;20.40;99.90;;;;;;5109871;28;20019;-65
2023/10/19 10:03:51;;;;;;;12.70;2.95;;;20.20;99.90;;;;;;5099619;28;20464;-65
2023/10/19 10:06:27;;;;;;;12.43;3.20;;;20.10;99.90;;;;;;5111668;28;20476;-65
2023/10/19 10:08:53;;;;;;;10.77;3.53;;;19.90;99.90;;;;;;5095952;28;20024;-65
2023/10/19 10:11:23;;;;;;;13.48;3.38;;;19.70;99.90;;;;;;5108094;28;20177;-65
2023/10/19 10:13:50;;;;;;;10.90;3.78;;;19.50;99.90;;;;;;5110096;28;20526;-65
2023/10/19 10:16:23;;;;;;;15.25;3.60;;;19.40;99.90;;;;;;5098731;28;20107;-65
2023/10/19 10:18:53;;;;;;;13.40;3.60;;;19.40;99.90;;;;;;5116063;28;20035;-65
2023/10/19 10:21:21;;;;;;;13.55;3.90;;;19.30;99.90;;;;;;5102532;28;20127;-65
2023/10/19 10:23:56;;;;;;;15.05;3.92;;;19.40;99.90;;;;;;5112337;28;20028;-65
2023/10/19 10:26:36;;;;;;;13.30;3.60;;;19.40;99.90;;;;;;5101130;28;20030;-65
2023/10/19 10:29:20;;;;;;;11.18;3.58;;;19.50;99.90;;;;;;5104049;28;20379;-65
2023/10/19 10:31:47;;;;;;;13.88;3.67;;;19.50;99.90;;;;;;5112706;28;20080;-65
2023/10/19 10:34:34;;;;;;;12.57;3.38;;;19.50;99.90;;;;;;5099911;28;20051;-65
2023/10/19 10:37:05;;;;;;;13.80;3.35;;;19.40;99.90;;;;;;5115763;28;20411;-65
2023/10/19 10:39:31;;;;;;;16.15;4.22;;;19.20;99.90;;;;;;5100528;28;20387;-65
2023/10/19 10:42:05;;;;;;;14.75;3.97;;;19.20;99.90;;;;;;5112298;28;20032;-65
2023/10/19 10:44:43;;;;;;;14.35;3.90;;;19.00;99.90;;;;;;5102437;28;20034;-65
2023/10/19 10:47:10;;;;;;;11.23;4.05;;;18.80;99.90;;;;;;5103368;28;20040;-65
2023/10/19 10:49:48;;;;;;;17.38;4.28;;;18.60;99.90;;;;;;5097328;28;20078;-65
2023/10/19 10:52:24;;;;;;;12.65;4.75;;;18.60;99.90;;;;;;5083798;28;20046;-65
2023/10/19 10:54:49;;;;;;;14.02;4.22;;;18.50;99.90;;;;;;5106343;28;20036;-65
2023/10/19 10:57:16;;;;;;;16.02;4.45;;;18.50;99.90;;;;;;5108062;28;20441;-65
2023/10/19 10:59:41;;;;;;;13.35;3.75;;;18.40;99.90;;;;;;5098519;28;20027;-65
2023/10/19 11:02:21;;;;;;;12.80;4.63;;;18.30;99.90;;;;;;5111710;28;20020;-64
2023/10/19 11:04:47;;;;;;;17.60;4.47;;;18.30;99.90;;;;;;5104203;28;20069;-65
2023/10/19 11:07:20;;;;;;;16.15;4.40;;;18.50;99.90;;;;;;5102757;28;20032;-65
2023/10/19 11:09:46;;;;;;;14.10;3.95;;;18.60;99.90;;;;;;5103826;28;20073;-65
2023/10/19 11:12:13;;;;;;;14.30;4.07;;;18.80;99.90;;;;;;5115179;28;20094;-65
2023/10/19 11:14:57;;;;;;;10.95;3.47;;;19.30;99.90;;;;;;5107018;28;20375;-65
2023/10/19 11:17:32;;;;;;;14.88;5.50;;;20.10;99.90;;;;;;5108962;28;20080;-65
2023/10/19 11:19:59;;;;;;;11.63;3.75;;;21.00;99.90;;;;;;5098185;28;20493;-65
2023/10/19 11:22:26;;;;;;;15.75;5.00;;;22.20;99.90;;;;;;5109031;27;20024;-66
2023/10/19 11:24:54;;;;;;;10.65;3.03;;;22.70;99.90;;;;;;5104454;28;20023;-65
2023/10/19 11:27:27;;;;;;;10.02;3.08;;;23.00;99.90;;;;;;5100382;28;20024;-65
2023/10/19 11:30:04;;;;;;;14.25;3.05;;;23.00;99.90;;;;;;5111479;28;20455;-65
2023/10/19 11:32:38;;;;;;;12.82;4.13;;;22.80;99.90;;;;;;5101109;28;20031;-65
2023/10/19 11:35:03;;;;;;;13.80;3.40;;;22.50;99.90;;;;;;5103980;28;20657;-65
2023/10/19 11:37:29;;;;;;;14.00;3.55;;;22.10;99.90;;;;;;5113254;28;20031;-65
2023/10/19 11:39:55;;;;;;;14.10;3.72;;;21.80;99.90;;;;;;5112906;28;20474;-65
2023/10/19 11:42:20;;;;;;;14.13;3.85;;;21.60;99.90;;;;;;5099810;28;20024;-65
2023/10/19 11:44:46;;;;;;;13.55;4.45;;;21.50;99.90;;;;;;5106056;28;20376;-65
2023/10/19 11:47:13;;;;;;;15.70;3.53;;;21.40;99.90;;;;;;5106597;28;20468;-65
2023/10/19 11:49:39;;;;;;;13.68;3.28;;;21.70;99.90;;;;;;5098147;28;20028;-66
2023/10/19 11:52:07;;;;;;;15.38;3.35;;;22.00;99.90;;;;;;5110907;28;20044;-65
2023/10/19 11:54:34;;;;;;;24.17;9.45;;;22.20;99.90;;;;;;5101325;28;20072;-65
2023/10/19 11:57:00;;;;;;;13.32;3.35;;;22.10;99.90;;;;;;5102994;28;20051;-65
2023/10/19 11:59:26;;;;;;;13.10;3.38;;;22.20;99.90;;;;;;5110464;28;20503;-65
2023/10/19 12:01:52;;;;;;;19.80;7.85;;;22.30;99.90;;;;;;5114751;28;20023;-65
2023/10/19 12:04:17;;;;;;;15.25;4.40;;;22.40;99.90;;;;;;5114304;28;20069;-65
2023/10/19 12:06:43;;;;;;;11.15;2.85;;;22.60;99.90;;;;;;5112577;28;20036;-65
2023/10/19 12:09:15;;;;;;;14.98;4.10;;;22.80;99.90;;;;;;5105677;28;20032;-65
2023/10/19 12:11:41;;;;;;;;;;;22.90;99.90;;;;;;5094694;28;20078;-65
2023/10/19 12:14:11;;;;;;;9.93;2.80;;;22.90;99.90;;;;;;5094295;28;19904;-66
2023/10/19 12:16:39;;;;;;;12.10;3.10;;;22.70;99.90;;;;;;5093923;28;20032;-65
2023/10/19 12:19:05;;;;;;;12.65;3.53;;;22.50;99.90;;;;;;5093806;28;20020;-65
2023/10/19 12:21:33;;;;;;;14.52;3.10;;;22.30;99.90;;;;;;5094264;28;20077;-65
2023/10/19 12:24:01;;;;;;;15.18;3.58;;;22.00;99.90;;;;;;5093990;28;20032;-65
2023/10/19 12:26:27;;;;;;;14.90;3.88;;;21.80;99.90;;;;;;5093887;28;20063;-65
2023/10/19 12:28:52;;;;;;;15.57;4.22;;;21.60;99.90;;;;;;5093922;28;20051;-65
2023/10/19 12:31:18;;;;;;;15.82;2.78;;;21.40;99.90;;;;;;5093655;28;20024;-64
2023/10/19 12:33:44;;;;;;;14.20;3.83;;;21.30;99.90;;;;;;5094068;28;20077;-65
2023/10/19 12:36:31;;;;;;;11.70;3.30;;;21.10;99.90;;;;;;5093818;28;20073;-65
2023/10/19 12:38:57;;;;;;;16.13;3.35;;;20.90;99.90;;;;;;5093620;28;20504;-65
2023/10/19 12:41:24;;;;;;;15.52;3.13;;;20.80;99.90;;;;;;5093841;28;20372;-65
2023/10/19 12:43:57;;;;;;;14.77;3.97;;;20.70;99.90;;;;;;5093325;28;20024;-65
2023/10/19 12:46:27;;;;;;;12.80;4.00;;;20.50;99.90;;;;;;5093736;28;20464;-65
2023/10/19 12:48:54;;;;;;;16.88;3.17;;;20.40;99.90;;;;;;5093821;28;20032;-64
2023/10/19 12:51:25;;;;;;;12.77;3.00;;;20.10;99.90;;;;;;5093333;28;20024;-64
2023/10/19 12:53:55;;;;;;;19.10;3.75;;;19.90;99.90;;;;;;5093738;28;20050;-64
2023/10/19 12:56:24;;;;;;;15.85;3.63;;;19.70;99.90;;;;;;5093048;28;20172;-64
2023/10/19 12:58:49;;;;;;;17.23;3.90;;;19.50;99.90;;;;;;5093396;28;20129;-64
2023/10/19 13:01:19;;;;;;;19.60;5.20;;;19.30;99.90;;;;;;5093709;28;20059;-65
2023/10/19 13:03:51;;;;;;;20.02;4.10;;;19.10;99.90;;;;;;5093486;28;20043;-65
2023/10/19 13:06:17;;;;;;;15.25;3.92;;;18.90;99.90;;;;;;5093595;28;20032;-65
2023/10/19 13:08:43;;;;;;;16.92;4.20;;;18.80;99.90;;;;;;5093325;28;20170;-65
2023/10/19 13:11:15;;;;;;;16.55;4.07;;;18.60;99.90;;;;;;5093514;28;20073;-65
2023/10/19 13:13:41;;;;;;;18.20;4.70;;;18.50;99.90;;;;;;5093620;28;20020;-65